sensor_id;sensor_type;location;lat;lon;timestamp;P1;durP1;ratioP1;P2;durP2;ratioP2
16514;SDS011;8370;52.556;7.970;2023-02-28T00:01:21;140.73;;;34.53;;
16514;SDS011;8370;52.556;7.970;2023-02-28T00:03:47;50.20;;;15.17;;
16514;SDS011;8370;52.556;7.970;2023-02-28T00:06:12;18.23;;;7.13;;
16514;SDS011;8370;52.556;7.970;2023-02-28T00:08:38;13.60;;;5.93;;
16514;SDS011;8370;52.556;7.970;2023-02-28T00:11:08;17.87;;;7.13;;
16514;SDS011;8370;52.556;7.970;2023-02-28T00:13:36;10.87;;;6.03;;
16514;SDS011;8370;52.556;7.970;2023-02-28T00:16:04;19.07;;;7.63;;
16514;SDS011;8370;52.556;7.970;2023-02-28T00:18:32;13.30;;;6.67;;
16514;SDS011;8370;52.556;7.970;2023-02-28T00:20:58;11.50;;;6.40;;
16514;SDS011;8370;52.556;7.970;2023-02-28T00:23:24;11.03;;;5.87;;
16514;SDS011;8370;52.556;7.970;2023-02-28T00:25:51;13.47;;;6.50;;
16514;SDS011;8370;52.556;7.970;2023-02-28T00:28:17;11.70;;;6.90;;
16514;SDS011;8370;52.556;7.970;2023-02-28T00:30:43;11.97;;;6.90;;
16514;SDS011;8370;52.556;7.970;2023-02-28T00:33:09;14.63;;;7.80;;
16514;SDS011;8370;52.556;7.970;2023-02-28T00:35:35;12.53;;;7.57;;
16514;SDS011;8370;52.556;7.970;2023-02-28T00:38:00;12.40;;;7.00;;
16514;SDS011;8370;52.556;7.970;2023-02-28T00:40:26;17.13;;;8.37;;
16514;SDS011;8370;52.556;7.970;2023-02-28T00:42:52;12.00;;;7.13;;
16514;SDS011;8370;52.556;7.970;2023-02-28T00:45:17;11.10;;;6.93;;
16514;SDS011;8370;52.556;7.970;2023-02-28T00:47:43;12.47;;;6.87;;
16514;SDS011;8370;52.556;7.970;2023-02-28T00:50:08;11.17;;;6.67;;
16514;SDS011;8370;52.556;7.970;2023-02-28T00:52:34;13.03;;;7.53;;
16514;SDS011;8370;52.556;7.970;2023-02-28T00:55:00;12.80;;;6.70;;
16514;SDS011;8370;52.556;7.970;2023-02-28T00:57:25;12.47;;;6.47;;
16514;SDS011;8370;52.556;7.970;2023-02-28T00:59:51;10.97;;;7.03;;
16514;SDS011;8370;52.556;7.970;2023-02-28T01:02:19;11.47;;;6.90;;
16514;SDS011;8370;52.556;7.970;2023-02-28T01:04:45;13.90;;;7.70;;
16514;SDS011;8370;52.556;7.970;2023-02-28T01:07:11;13.57;;;7.30;;
16514;SDS011;8370;52.556;7.970;2023-02-28T01:09:36;17.80;;;7.60;;
16514;SDS011;8370;52.556;7.970;2023-02-28T01:12:02;18.70;;;8.23;;
16514;SDS011;8370;52.556;7.970;2023-02-28T01:14:27;18.83;;;9.40;;
16514;SDS011;8370;52.556;7.970;2023-02-28T01:16:53;20.57;;;8.57;;
16514;SDS011;8370;52.556;7.970;2023-02-28T01:19:18;14.90;;;7.47;;
16514;SDS011;8370;52.556;7.970;2023-02-28T01:21:44;16.60;;;8.23;;
16514;SDS011;8370;52.556;7.970;2023-02-28T01:24:09;17.97;;;8.53;;
16514;SDS011;8370;52.556;7.970;2023-02-28T01:26:35;20.23;;;9.00;;
16514;SDS011;8370;52.556;7.970;2023-02-28T01:29:00;20.50;;;8.00;;
16514;SDS011;8370;52.556;7.970;2023-02-28T01:31:26;13.70;;;7.33;;
16514;SDS011;8370;52.556;7.970;2023-02-28T01:33:51;15.63;;;7.87;;
16514;SDS011;8370;52.556;7.970;2023-02-28T01:36:19;14.60;;;7.93;;
16514;SDS011;8370;52.556;7.970;2023-02-28T01:38:46;11.73;;;7.10;;
16514;SDS011;8370;52.556;7.970;2023-02-28T01:41:20;14.00;;;7.60;;
16514;SDS011;8370;52.556;7.970;2023-02-28T01:46:34;15.90;;;6.73;;
16514;SDS011;8370;52.556;7.970;2023-02-28T01:54:04;14.30;;;6.93;;
16514;SDS011;8370;52.556;7.970;2023-02-28T01:56:38;11.47;;;6.70;;
16514;SDS011;8370;52.556;7.970;2023-02-28T01:59:08;10.33;;;7.00;;
16514;SDS011;8370;52.556;7.970;2023-02-28T02:01:35;11.77;;;7.17;;
16514;SDS011;8370;52.556;7.970;2023-02-28T02:04:01;9.73;;;6.70;;
16514;SDS011;8370;52.556;7.970;2023-02-28T02:06:29;13.07;;;7.33;;
16514;SDS011;8370;52.556;7.970;2023-02-28T02:09:00;11.17;;;6.57;;
16514;SDS011;8370;52.556;7.970;2023-02-28T02:11:26;14.03;;;6.43;;
16514;SDS011;8370;52.556;7.970;2023-02-28T02:16:38;12.50;;;6.90;;
16514;SDS011;8370;52.556;7.970;2023-02-28T02:36:07;12.20;;;7.27;;
16514;SDS011;8370;52.556;7.970;2023-02-28T02:41:40;9.97;;;6.63;;
16514;SDS011;8370;52.556;7.970;2023-02-28T02:44:20;9.23;;;6.03;;
16514;SDS011;8370;52.556;7.970;2023-02-28T02:46:52;12.53;;;7.00;;
16514;SDS011;8370;52.556;7.970;2023-02-28T02:49:26;14.73;;;7.40;;
16514;SDS011;8370;52.556;7.970;2023-02-28T02:51:56;12.70;;;6.83;;
16514;SDS011;8370;52.556;7.970;2023-02-28T02:54:36;11.73;;;6.97;;
16514;SDS011;8370;52.556;7.970;2023-02-28T02:57:10;13.40;;;6.80;;
16514;SDS011;8370;52.556;7.970;2023-02-28T02:59:40;12.30;;;7.50;;
16514;SDS011;8370;52.556;7.970;2023-02-28T03:02:07;13.00;;;7.43;;
16514;SDS011;8370;52.556;7.970;2023-02-28T03:04:42;10.90;;;6.77;;
16514;SDS011;8370;52.556;7.970;2023-02-28T03:07:13;11.43;;;6.63;;
16514;SDS011;8370;52.556;7.970;2023-02-28T03:09:39;16.10;;;7.30;;
16514;SDS011;8370;52.556;7.970;2023-02-28T03:12:04;14.10;;;7.07;;
16514;SDS011;8370;52.556;7.970;2023-02-28T03:20:48;13.87;;;6.60;;
16514;SDS011;8370;52.556;7.970;2023-02-28T03:23:03;11.73;;;5.57;;
16514;SDS011;8370;52.556;7.970;2023-02-28T03:25:53;11.70;;;6.00;;
16514;SDS011;8370;52.556;7.970;2023-02-28T03:28:37;9.30;;;5.33;;
16514;SDS011;8370;52.556;7.970;2023-02-28T03:31:18;13.10;;;6.17;;
16514;SDS011;8370;52.556;7.970;2023-02-28T03:33:54;11.87;;;5.83;;
16514;SDS011;8370;52.556;7.970;2023-02-28T03:36:38;9.97;;;5.87;;
16514;SDS011;8370;52.556;7.970;2023-02-28T03:39:14;9.97;;;5.97;;
16514;SDS011;8370;52.556;7.970;2023-02-28T03:41:46;11.03;;;6.00;;
16514;SDS011;8370;52.556;7.970;2023-02-28T03:44:21;12.07;;;6.70;;
16514;SDS011;8370;52.556;7.970;2023-02-28T03:47:13;9.53;;;6.10;;
16514;SDS011;8370;52.556;7.970;2023-02-28T03:49:45;11.27;;;6.13;;
16514;SDS011;8370;52.556;7.970;2023-02-28T03:52:15;10.13;;;6.10;;
16514;SDS011;8370;52.556;7.970;2023-02-28T03:54:45;11.47;;;7.13;;
16514;SDS011;8370;52.556;7.970;2023-02-28T03:57:22;12.80;;;6.00;;
16514;SDS011;8370;52.556;7.970;2023-02-28T04:00:03;11.07;;;6.13;;
16514;SDS011;8370;52.556;7.970;2023-02-28T04:02:33;8.87;;;5.93;;
16514;SDS011;8370;52.556;7.970;2023-02-28T04:04:59;9.47;;;6.10;;
16514;SDS011;8370;52.556;7.970;2023-02-28T04:07:28;9.97;;;5.90;;
16514;SDS011;8370;52.556;7.970;2023-02-28T04:09:55;11.57;;;6.67;;
16514;SDS011;8370;52.556;7.970;2023-02-28T04:12:21;12.77;;;5.97;;
16514;SDS011;8370;52.556;7.970;2023-02-28T04:14:48;14.00;;;6.50;;
16514;SDS011;8370;52.556;7.970;2023-02-28T04:17:14;11.27;;;6.77;;
16514;SDS011;8370;52.556;7.970;2023-02-28T04:19:40;11.50;;;6.57;;
16514;SDS011;8370;52.556;7.970;2023-02-28T04:22:07;12.07;;;6.07;;
16514;SDS011;8370;52.556;7.970;2023-02-28T04:24:33;12.70;;;6.27;;
16514;SDS011;8370;52.556;7.970;2023-02-28T04:26:59;9.97;;;5.70;;
16514;SDS011;8370;52.556;7.970;2023-02-28T04:29:26;11.07;;;6.63;;
16514;SDS011;8370;52.556;7.970;2023-02-28T04:31:53;12.60;;;6.90;;
16514;SDS011;8370;52.556;7.970;2023-02-28T04:34:23;15.03;;;6.77;;
16514;SDS011;8370;52.556;7.970;2023-02-28T04:36:49;13.47;;;6.50;;
16514;SDS011;8370;52.556;7.970;2023-02-28T04:39:15;13.03;;;6.90;;
16514;SDS011;8370;52.556;7.970;2023-02-28T04:41:43;12.63;;;7.43;;
16514;SDS011;8370;52.556;7.970;2023-02-28T04:44:09;11.17;;;6.20;;
16514;SDS011;8370;52.556;7.970;2023-02-28T04:46:35;14.63;;;6.77;;
16514;SDS011;8370;52.556;7.970;2023-02-28T04:49:00;12.33;;;6.50;;
16514;SDS011;8370;52.556;7.970;2023-02-28T04:51:25;12.33;;;6.27;;
16514;SDS011;8370;52.556;7.970;2023-02-28T04:53:51;9.27;;;6.03;;
16514;SDS011;8370;52.556;7.970;2023-02-28T04:56:18;12.90;;;6.80;;
16514;SDS011;8370;52.556;7.970;2023-02-28T04:58:43;10.83;;;6.33;;
16514;SDS011;8370;52.556;7.970;2023-02-28T05:01:23;11.27;;;6.57;;
16514;SDS011;8370;52.556;7.970;2023-02-28T05:03:51;10.33;;;6.20;;
16514;SDS011;8370;52.556;7.970;2023-02-28T05:06:18;12.17;;;6.63;;
16514;SDS011;8370;52.556;7.970;2023-02-28T05:08:45;10.30;;;6.50;;
16514;SDS011;8370;52.556;7.970;2023-02-28T05:11:16;9.50;;;5.77;;
16514;SDS011;8370;52.556;7.970;2023-02-28T05:13:44;10.43;;;6.83;;
16514;SDS011;8370;52.556;7.970;2023-02-28T05:16:10;10.80;;;6.97;;
16514;SDS011;8370;52.556;7.970;2023-02-28T05:18:36;12.53;;;6.73;;
16514;SDS011;8370;52.556;7.970;2023-02-28T05:21:02;10.67;;;6.57;;
16514;SDS011;8370;52.556;7.970;2023-02-28T05:23:28;9.57;;;6.13;;
16514;SDS011;8370;52.556;7.970;2023-02-28T05:25:53;12.10;;;5.53;;
16514;SDS011;8370;52.556;7.970;2023-02-28T05:28:20;9.40;;;5.93;;
16514;SDS011;8370;52.556;7.970;2023-02-28T05:30:45;11.60;;;6.60;;
16514;SDS011;8370;52.556;7.970;2023-02-28T05:33:11;13.43;;;6.40;;
16514;SDS011;8370;52.556;7.970;2023-02-28T05:35:38;12.33;;;6.47;;
16514;SDS011;8370;52.556;7.970;2023-02-28T05:38:05;8.80;;;5.97;;
16514;SDS011;8370;52.556;7.970;2023-02-28T05:40:30;9.37;;;5.93;;
16514;SDS011;8370;52.556;7.970;2023-02-28T05:42:56;13.73;;;6.97;;
16514;SDS011;8370;52.556;7.970;2023-02-28T05:45:21;11.30;;;6.50;;
16514;SDS011;8370;52.556;7.970;2023-02-28T05:47:47;11.53;;;5.77;;
16514;SDS011;8370;52.556;7.970;2023-02-28T05:50:12;7.50;;;5.67;;
16514;SDS011;8370;52.556;7.970;2023-02-28T05:52:38;11.07;;;6.03;;
16514;SDS011;8370;52.556;7.970;2023-02-28T05:55:03;12.27;;;5.50;;
16514;SDS011;8370;52.556;7.970;2023-02-28T05:57:29;11.10;;;5.83;;
16514;SDS011;8370;52.556;7.970;2023-02-28T05:59:54;12.70;;;5.83;;
16514;SDS011;8370;52.556;7.970;2023-02-28T06:02:20;8.17;;;5.93;;
16514;SDS011;8370;52.556;7.970;2023-02-28T06:04:46;9.87;;;6.23;;
16514;SDS011;8370;52.556;7.970;2023-02-28T06:07:11;9.27;;;5.40;;
16514;SDS011;8370;52.556;7.970;2023-02-28T06:09:37;10.13;;;5.73;;
16514;SDS011;8370;52.556;7.970;2023-02-28T06:12:03;9.53;;;6.13;;
16514;SDS011;8370;52.556;7.970;2023-02-28T06:14:31;11.10;;;5.83;;
16514;SDS011;8370;52.556;7.970;2023-02-28T06:16:58;9.70;;;6.17;;
16514;SDS011;8370;52.556;7.970;2023-02-28T06:19:25;11.00;;;6.33;;
16514;SDS011;8370;52.556;7.970;2023-02-28T06:21:51;11.93;;;5.50;;
16514;SDS011;8370;52.556;7.970;2023-02-28T06:24:18;8.97;;;5.63;;
16514;SDS011;8370;52.556;7.970;2023-02-28T06:26:44;12.17;;;6.13;;
16514;SDS011;8370;52.556;7.970;2023-02-28T06:29:10;21.23;;;6.80;;
16514;SDS011;8370;52.556;7.970;2023-02-28T06:31:36;17.60;;;6.83;;
16514;SDS011;8370;52.556;7.970;2023-02-28T06:34:03;10.87;;;6.33;;
16514;SDS011;8370;52.556;7.970;2023-02-28T06:36:29;10.57;;;6.00;;
16514;SDS011;8370;52.556;7.970;2023-02-28T06:38:55;13.93;;;6.40;;
16514;SDS011;8370;52.556;7.970;2023-02-28T06:41:24;9.50;;;6.20;;
16514;SDS011;8370;52.556;7.970;2023-02-28T06:43:51;12.60;;;7.83;;
16514;SDS011;8370;52.556;7.970;2023-02-28T06:46:17;10.90;;;7.87;;
16514;SDS011;8370;52.556;7.970;2023-02-28T06:48:43;12.73;;;7.50;;
16514;SDS011;8370;52.556;7.970;2023-02-28T06:51:10;11.33;;;6.73;;
16514;SDS011;8370;52.556;7.970;2023-02-28T06:53:38;10.73;;;6.77;;
16514;SDS011;8370;52.556;7.970;2023-02-28T06:56:05;13.00;;;7.77;;
16514;SDS011;8370;52.556;7.970;2023-02-28T06:58:31;12.70;;;7.73;;
16514;SDS011;8370;52.556;7.970;2023-02-28T07:00:57;17.53;;;7.97;;
16514;SDS011;8370;52.556;7.970;2023-02-28T07:03:23;10.00;;;6.73;;
16514;SDS011;8370;52.556;7.970;2023-02-28T07:05:48;12.23;;;6.70;;
16514;SDS011;8370;52.556;7.970;2023-02-28T07:08:14;13.40;;;6.47;;
16514;SDS011;8370;52.556;7.970;2023-02-28T07:10:40;13.87;;;6.73;;
16514;SDS011;8370;52.556;7.970;2023-02-28T07:13:06;10.30;;;6.33;;
16514;SDS011;8370;52.556;7.970;2023-02-28T07:15:33;13.80;;;6.53;;
16514;SDS011;8370;52.556;7.970;2023-02-28T07:17:59;11.03;;;6.77;;
16514;SDS011;8370;52.556;7.970;2023-02-28T07:20:25;11.37;;;6.67;;
16514;SDS011;8370;52.556;7.970;2023-02-28T07:22:51;9.20;;;6.03;;
16514;SDS011;8370;52.556;7.970;2023-02-28T07:25:23;14.20;;;7.20;;
16514;SDS011;8370;52.556;7.970;2023-02-28T07:27:49;8.80;;;6.40;;
16514;SDS011;8370;52.556;7.970;2023-02-28T07:30:15;9.67;;;6.77;;
16514;SDS011;8370;52.556;7.970;2023-02-28T07:32:41;15.73;;;7.40;;
16514;SDS011;8370;52.556;7.970;2023-02-28T07:35:06;10.33;;;6.10;;
16514;SDS011;8370;52.556;7.970;2023-02-28T07:37:32;13.13;;;7.00;;
16514;SDS011;8370;52.556;7.970;2023-02-28T07:40:02;9.83;;;6.60;;
16514;SDS011;8370;52.556;7.970;2023-02-28T07:42:31;9.17;;;6.17;;
16514;SDS011;8370;52.556;7.970;2023-02-28T07:44:56;12.07;;;6.90;;
16514;SDS011;8370;52.556;7.970;2023-02-28T07:47:22;11.43;;;7.00;;
16514;SDS011;8370;52.556;7.970;2023-02-28T07:49:47;10.87;;;6.87;;
16514;SDS011;8370;52.556;7.970;2023-02-28T07:52:13;11.00;;;6.63;;
16514;SDS011;8370;52.556;7.970;2023-02-28T07:54:38;10.20;;;7.03;;
16514;SDS011;8370;52.556;7.970;2023-02-28T07:57:04;12.37;;;7.37;;
16514;SDS011;8370;52.556;7.970;2023-02-28T07:59:29;10.63;;;7.03;;
16514;SDS011;8370;52.556;7.970;2023-02-28T08:01:56;15.83;;;7.93;;
16514;SDS011;8370;52.556;7.970;2023-02-28T08:04:22;11.07;;;7.13;;
16514;SDS011;8370;52.556;7.970;2023-02-28T08:06:48;11.90;;;7.27;;
16514;SDS011;8370;52.556;7.970;2023-02-28T08:09:13;9.47;;;6.60;;
16514;SDS011;8370;52.556;7.970;2023-02-28T08:11:39;10.27;;;6.27;;
16514;SDS011;8370;52.556;7.970;2023-02-28T08:14:05;9.93;;;6.80;;
16514;SDS011;8370;52.556;7.970;2023-02-28T08:16:30;9.60;;;5.50;;
16514;SDS011;8370;52.556;7.970;2023-02-28T08:18:56;7.57;;;5.83;;
16514;SDS011;8370;52.556;7.970;2023-02-28T08:21:21;10.27;;;5.87;;
16514;SDS011;8370;52.556;7.970;2023-02-28T08:23:47;8.57;;;5.53;;
16514;SDS011;8370;52.556;7.970;2023-02-28T08:26:14;24.03;;;9.33;;
16514;SDS011;8370;52.556;7.970;2023-02-28T08:28:41;10.67;;;5.90;;
16514;SDS011;8370;52.556;7.970;2023-02-28T08:31:07;9.37;;;5.83;;
16514;SDS011;8370;52.556;7.970;2023-02-28T08:33:34;9.27;;;6.10;;
16514;SDS011;8370;52.556;7.970;2023-02-28T08:36:00;11.83;;;6.37;;
16514;SDS011;8370;52.556;7.970;2023-02-28T08:38:25;8.37;;;5.57;;
16514;SDS011;8370;52.556;7.970;2023-02-28T08:40:56;7.63;;;5.50;;
16514;SDS011;8370;52.556;7.970;2023-02-28T08:43:23;7.47;;;5.30;;
16514;SDS011;8370;52.556;7.970;2023-02-28T08:45:51;8.57;;;5.30;;
16514;SDS011;8370;52.556;7.970;2023-02-28T08:48:22;6.13;;;4.90;;
16514;SDS011;8370;52.556;7.970;2023-02-28T08:50:54;8.17;;;4.73;;
16514;SDS011;8370;52.556;7.970;2023-02-28T08:53:24;8.13;;;4.40;;
16514;SDS011;8370;52.556;7.970;2023-02-28T08:55:59;7.67;;;4.60;;
16514;SDS011;8370;52.556;7.970;2023-02-28T08:58:26;6.43;;;3.27;;
16514;SDS011;8370;52.556;7.970;2023-02-28T09:00:53;3.83;;;3.43;;
16514;SDS011;8370;52.556;7.970;2023-02-28T09:03:19;5.40;;;2.83;;
16514;SDS011;8370;52.556;7.970;2023-02-28T09:05:55;4.83;;;2.90;;
16514;SDS011;8370;52.556;7.970;2023-02-28T09:08:23;5.33;;;2.50;;
16514;SDS011;8370;52.556;7.970;2023-02-28T09:10:51;3.13;;;2.10;;
16514;SDS011;8370;52.556;7.970;2023-02-28T09:13:17;3.10;;;2.10;;
16514;SDS011;8370;52.556;7.970;2023-02-28T09:15:43;4.37;;;2.90;;
16514;SDS011;8370;52.556;7.970;2023-02-28T09:18:09;4.43;;;2.67;;
16514;SDS011;8370;52.556;7.970;2023-02-28T09:20:37;4.77;;;2.30;;
16514;SDS011;8370;52.556;7.970;2023-02-28T09:23:03;1.87;;;1.30;;
16514;SDS011;8370;52.556;7.970;2023-02-28T09:25:28;1.83;;;1.37;;
16514;SDS011;8370;52.556;7.970;2023-02-28T09:27:54;3.20;;;1.80;;
16514;SDS011;8370;52.556;7.970;2023-02-28T09:30:19;2.57;;;2.10;;
16514;SDS011;8370;52.556;7.970;2023-02-28T09:32:45;2.90;;;1.60;;
16514;SDS011;8370;52.556;7.970;2023-02-28T09:35:16;5.53;;;2.20;;
16514;SDS011;8370;52.556;7.970;2023-02-28T09:37:43;2.57;;;2.00;;
16514;SDS011;8370;52.556;7.970;2023-02-28T09:40:09;3.07;;;2.00;;
16514;SDS011;8370;52.556;7.970;2023-02-28T09:42:35;4.93;;;2.00;;
16514;SDS011;8370;52.556;7.970;2023-02-28T09:45:02;3.73;;;1.90;;
16514;SDS011;8370;52.556;7.970;2023-02-28T09:47:37;4.97;;;1.57;;
16514;SDS011;8370;52.556;7.970;2023-02-28T09:50:11;1.20;;;1.10;;
16514;SDS011;8370;52.556;7.970;2023-02-28T09:52:48;2.67;;;1.30;;
16514;SDS011;8370;52.556;7.970;2023-02-28T09:57:44;1.53;;;0.93;;
16514;SDS011;8370;52.556;7.970;2023-02-28T10:00:13;1.87;;;0.93;;
16514;SDS011;8370;52.556;7.970;2023-02-28T10:05:17;2.07;;;1.50;;
16514;SDS011;8370;52.556;7.970;2023-02-28T10:07:48;1.60;;;1.10;;
16514;SDS011;8370;52.556;7.970;2023-02-28T10:13:06;1.90;;;1.40;;
16514;SDS011;8370;52.556;7.970;2023-02-28T10:15:39;2.07;;;1.60;;
16514;SDS011;8370;52.556;7.970;2023-02-28T10:18:09;2.07;;;1.67;;
16514;SDS011;8370;52.556;7.970;2023-02-28T10:20:38;1.60;;;1.27;;
16514;SDS011;8370;52.556;7.970;2023-02-28T10:25:37;2.53;;;1.50;;
16514;SDS011;8370;52.556;7.970;2023-02-28T10:28:11;3.20;;;1.10;;
16514;SDS011;8370;52.556;7.970;2023-02-28T10:30:40;1.07;;;0.50;;
16514;SDS011;8370;52.556;7.970;2023-02-28T10:35:52;2.20;;;1.10;;
16514;SDS011;8370;52.556;7.970;2023-02-28T10:38:22;0.93;;;0.80;;
16514;SDS011;8370;52.556;7.970;2023-02-28T10:40:50;3.37;;;1.27;;
16514;SDS011;8370;52.556;7.970;2023-02-28T10:45:55;1.40;;;0.80;;
16514;SDS011;8370;52.556;7.970;2023-02-28T10:48:38;3.97;;;0.63;;
16514;SDS011;8370;52.556;7.970;2023-02-28T10:51:07;2.23;;;0.80;;
16514;SDS011;8370;52.556;7.970;2023-02-28T10:53:39;2.17;;;0.60;;
16514;SDS011;8370;52.556;7.970;2023-02-28T10:56:15;0.60;;;0.60;;
16514;SDS011;8370;52.556;7.970;2023-02-28T11:01:21;1.53;;;0.80;;
16514;SDS011;8370;52.556;7.970;2023-02-28T11:03:51;0.83;;;0.80;;
16514;SDS011;8370;52.556;7.970;2023-02-28T11:06:21;0.97;;;0.97;;
16514;SDS011;8370;52.556;7.970;2023-02-28T11:08:52;0.90;;;0.70;;
16514;SDS011;8370;52.556;7.970;2023-02-28T11:11:20;0.60;;;0.60;;
16514;SDS011;8370;52.556;7.970;2023-02-28T11:13:50;2.03;;;0.80;;
16514;SDS011;8370;52.556;7.970;2023-02-28T11:16:18;2.70;;;0.60;;
16514;SDS011;8370;52.556;7.970;2023-02-28T11:21:41;2.13;;;0.80;;
16514;SDS011;8370;52.556;7.970;2023-02-28T11:24:16;0.87;;;0.70;;
16514;SDS011;8370;52.556;7.970;2023-02-28T11:26:46;1.00;;;0.70;;
16514;SDS011;8370;52.556;7.970;2023-02-28T11:29:29;1.13;;;0.80;;
16514;SDS011;8370;52.556;7.970;2023-02-28T11:32:01;1.37;;;0.80;;
16514;SDS011;8370;52.556;7.970;2023-02-28T11:34:29;1.23;;;0.70;;
16514;SDS011;8370;52.556;7.970;2023-02-28T11:36:56;0.83;;;0.83;;
16514;SDS011;8370;52.556;7.970;2023-02-28T11:39:23;1.57;;;0.90;;
16514;SDS011;8370;52.556;7.970;2023-02-28T11:42:04;1.43;;;0.73;;
16514;SDS011;8370;52.556;7.970;2023-02-28T11:49:57;1.03;;;0.90;;
16514;SDS011;8370;52.556;7.970;2023-02-28T11:52:43;1.67;;;0.90;;
16514;SDS011;8370;52.556;7.970;2023-02-28T11:57:56;0.80;;;0.70;;
16514;SDS011;8370;52.556;7.970;2023-02-28T12:00:38;1.67;;;1.10;;
16514;SDS011;8370;52.556;7.970;2023-02-28T12:27:54;1.10;;;1.00;;
16514;SDS011;8370;52.556;7.970;2023-02-28T12:30:24;2.25;;;0.90;;
16514;SDS011;8370;52.556;7.970;2023-02-28T12:33:06;0.75;;;0.75;;
16514;SDS011;8370;52.556;7.970;2023-02-28T12:35:38;1.38;;;1.10;;
16514;SDS011;8370;52.556;7.970;2023-02-28T12:38:13;1.60;;;0.85;;
16514;SDS011;8370;52.556;7.970;2023-02-28T12:40:56;1.40;;;1.20;;
16514;SDS011;8370;52.556;7.970;2023-02-28T12:43:34;1.60;;;0.98;;
16514;SDS011;8370;52.556;7.970;2023-02-28T12:46:08;1.70;;;1.00;;
16514;SDS011;8370;52.556;7.970;2023-02-28T12:48:57;1.50;;;1.23;;
16514;SDS011;8370;52.556;7.970;2023-02-28T12:51:25;0.75;;;0.73;;
16514;SDS011;8370;52.556;7.970;2023-02-28T12:53:56;1.10;;;1.00;;
16514;SDS011;8370;52.556;7.970;2023-02-28T12:56:38;1.63;;;1.02;;
16514;SDS011;8370;52.556;7.970;2023-02-28T13:02:02;3.88;;;1.40;;
16514;SDS011;8370;52.556;7.970;2023-02-28T13:10:19;0.65;;;0.60;;
16514;SDS011;8370;52.556;7.970;2023-02-28T13:12:51;2.55;;;1.17;;
16514;SDS011;8370;52.556;7.970;2023-02-28T13:15:21;1.25;;;1.10;;
16514;SDS011;8370;52.556;7.970;2023-02-28T13:17:53;2.13;;;0.93;;
16514;SDS011;8370;52.556;7.970;2023-02-28T13:20:25;1.10;;;1.00;;
16514;SDS011;8370;52.556;7.970;2023-02-28T13:22:58;3.38;;;1.08;;
16514;SDS011;8370;52.556;7.970;2023-02-28T13:28:11;1.85;;;1.20;;
16514;SDS011;8370;52.556;7.970;2023-02-28T13:33:21;1.40;;;0.90;;
16514;SDS011;8370;52.556;7.970;2023-02-28T13:35:59;1.95;;;1.10;;
16514;SDS011;8370;52.556;7.970;2023-02-28T13:38:39;1.80;;;1.10;;
16514;SDS011;8370;52.556;7.970;2023-02-28T13:44:16;1.37;;;1.27;;
16514;SDS011;8370;52.556;7.970;2023-02-28T13:51:53;1.40;;;1.20;;
16514;SDS011;8370;52.556;7.970;2023-02-28T13:54:43;1.30;;;1.20;;
16514;SDS011;8370;52.556;7.970;2023-02-28T14:11:30;1.10;;;1.00;;
16514;SDS011;8370;52.556;7.970;2023-02-28T14:13:58;2.27;;;1.37;;
16514;SDS011;8370;52.556;7.970;2023-02-28T14:16:25;1.63;;;1.50;;
16514;SDS011;8370;52.556;7.970;2023-02-28T14:19:04;2.27;;;1.30;;
16514;SDS011;8370;52.556;7.970;2023-02-28T14:22:12;3.00;;;1.60;;
16514;SDS011;8370;52.556;7.970;2023-02-28T14:27:54;1.70;;;1.60;;
16514;SDS011;8370;52.556;7.970;2023-02-28T14:30:42;2.03;;;1.30;;
16514;SDS011;8370;52.556;7.970;2023-02-28T14:36:13;1.87;;;1.67;;
16514;SDS011;8370;52.556;7.970;2023-02-28T14:39:12;1.77;;;1.47;;
16514;SDS011;8370;52.556;7.970;2023-02-28T14:41:40;3.30;;;1.47;;
16514;SDS011;8370;52.556;7.970;2023-02-28T14:46:50;1.20;;;1.03;;
16514;SDS011;8370;52.556;7.970;2023-02-28T14:49:20;2.97;;;1.50;;
16514;SDS011;8370;52.556;7.970;2023-02-28T14:52:01;1.23;;;1.07;;
16514;SDS011;8370;52.556;7.970;2023-02-28T14:54:42;1.70;;;1.30;;
16514;SDS011;8370;52.556;7.970;2023-02-28T15:00:29;3.50;;;1.70;;
16514;SDS011;8370;52.556;7.970;2023-02-28T15:02:57;2.83;;;1.60;;
16514;SDS011;8370;52.556;7.970;2023-02-28T15:08:34;1.83;;;1.17;;
16514;SDS011;8370;52.556;7.970;2023-02-28T15:10:51;1.30;;;1.20;;
16514;SDS011;8370;52.556;7.970;2023-02-28T15:13:20;1.90;;;1.47;;
16514;SDS011;8370;52.556;7.970;2023-02-28T15:15:48;3.03;;;1.67;;
16514;SDS011;8370;52.556;7.970;2023-02-28T15:20:50;2.37;;;1.50;;
16514;SDS011;8370;52.556;7.970;2023-02-28T15:23:16;2.67;;;1.73;;
16514;SDS011;8370;52.556;7.970;2023-02-28T15:25:43;1.30;;;1.20;;
16514;SDS011;8370;52.556;7.970;2023-02-28T15:28:11;2.00;;;1.67;;
16514;SDS011;8370;52.556;7.970;2023-02-28T15:30:50;2.10;;;1.90;;
16514;SDS011;8370;52.556;7.970;2023-02-28T15:33:28;2.33;;;1.23;;
16514;SDS011;8370;52.556;7.970;2023-02-28T15:36:06;1.20;;;1.03;;
16514;SDS011;8370;52.556;7.970;2023-02-28T15:38:38;3.00;;;1.63;;
16514;SDS011;8370;52.556;7.970;2023-02-28T15:41:03;3.17;;;1.50;;
16514;SDS011;8370;52.556;7.970;2023-02-28T15:43:34;2.70;;;1.80;;
16514;SDS011;8370;52.556;7.970;2023-02-28T15:46:02;1.70;;;1.53;;
16514;SDS011;8370;52.556;7.970;2023-02-28T15:48:32;3.63;;;1.63;;
16514;SDS011;8370;52.556;7.970;2023-02-28T15:51:06;1.53;;;1.30;;
16514;SDS011;8370;52.556;7.970;2023-02-28T15:53:36;3.40;;;1.87;;
16514;SDS011;8370;52.556;7.970;2023-02-28T15:56:21;2.00;;;1.50;;
16514;SDS011;8370;52.556;7.970;2023-02-28T15:59:07;2.13;;;1.27;;
16514;SDS011;8370;52.556;7.970;2023-02-28T16:01:39;1.67;;;1.57;;
16514;SDS011;8370;52.556;7.970;2023-02-28T16:04:25;2.30;;;1.60;;
16514;SDS011;8370;52.556;7.970;2023-02-28T16:09:23;2.43;;;1.70;;
16514;SDS011;8370;52.556;7.970;2023-02-28T16:11:49;2.10;;;1.60;;
16514;SDS011;8370;52.556;7.970;2023-02-28T16:14:22;3.20;;;1.73;;
16514;SDS011;8370;52.556;7.970;2023-02-28T16:16:50;2.47;;;1.60;;
16514;SDS011;8370;52.556;7.970;2023-02-28T16:19:18;1.40;;;1.30;;
16514;SDS011;8370;52.556;7.970;2023-02-28T16:21:44;2.20;;;1.50;;
16514;SDS011;8370;52.556;7.970;2023-02-28T16:24:10;3.83;;;1.70;;
16514;SDS011;8370;52.556;7.970;2023-02-28T16:26:36;2.90;;;1.70;;
16514;SDS011;8370;52.556;7.970;2023-02-28T16:29:04;2.67;;;1.70;;
16514;SDS011;8370;52.556;7.970;2023-02-28T16:31:30;3.60;;;2.00;;
16514;SDS011;8370;52.556;7.970;2023-02-28T16:34:00;2.80;;;1.90;;
16514;SDS011;8370;52.556;7.970;2023-02-28T16:36:25;2.03;;;1.70;;
16514;SDS011;8370;52.556;7.970;2023-02-28T16:38:51;1.97;;;1.43;;
16514;SDS011;8370;52.556;7.970;2023-02-28T16:41:18;4.67;;;1.63;;
16514;SDS011;8370;52.556;7.970;2023-02-28T16:43:46;4.77;;;1.73;;
16514;SDS011;8370;52.556;7.970;2023-02-28T16:46:13;5.13;;;1.60;;
16514;SDS011;8370;52.556;7.970;2023-02-28T16:48:39;2.90;;;1.50;;
16514;SDS011;8370;52.556;7.970;2023-02-28T16:51:05;3.60;;;1.60;;
16514;SDS011;8370;52.556;7.970;2023-02-28T16:53:35;2.97;;;1.80;;
16514;SDS011;8370;52.556;7.970;2023-02-28T16:56:01;3.17;;;1.63;;
16514;SDS011;8370;52.556;7.970;2023-02-28T16:58:27;3.23;;;1.80;;
16514;SDS011;8370;52.556;7.970;2023-02-28T17:00:52;3.63;;;1.83;;
16514;SDS011;8370;52.556;7.970;2023-02-28T17:03:25;1.63;;;1.50;;
16514;SDS011;8370;52.556;7.970;2023-02-28T17:05:52;3.77;;;1.67;;
16514;SDS011;8370;52.556;7.970;2023-02-28T17:08:17;2.57;;;1.50;;
16514;SDS011;8370;52.556;7.970;2023-02-28T17:10:43;2.00;;;1.37;;
16514;SDS011;8370;52.556;7.970;2023-02-28T17:13:09;1.73;;;1.47;;
16514;SDS011;8370;52.556;7.970;2023-02-28T17:15:34;3.13;;;1.73;;
16514;SDS011;8370;52.556;7.970;2023-02-28T17:18:01;2.77;;;1.60;;
16514;SDS011;8370;52.556;7.970;2023-02-28T17:20:27;1.57;;;1.40;;
16514;SDS011;8370;52.556;7.970;2023-02-28T17:22:53;5.87;;;2.10;;
16514;SDS011;8370;52.556;7.970;2023-02-28T17:25:19;2.70;;;1.90;;
16514;SDS011;8370;52.556;7.970;2023-02-28T17:27:45;2.23;;;1.90;;
16514;SDS011;8370;52.556;7.970;2023-02-28T17:30:21;2.87;;;2.10;;
16514;SDS011;8370;52.556;7.970;2023-02-28T17:32:48;2.80;;;2.00;;
16514;SDS011;8370;52.556;7.970;2023-02-28T17:35:14;2.63;;;1.70;;